createdAt,value
2017-11-11T00:02:35.307Z,77.80
2017-11-11T00:17:35.177Z,78.29
2017-11-11T00:32:34.645Z,79.09
2017-11-11T00:47:35.072Z,79.12
2017-11-11T01:02:34.482Z,78.80
2017-11-11T01:17:36.401Z,78.61
2017-11-11T01:32:36.822Z,78.25
2017-11-11T01:47:34.788Z,78.02
2017-11-11T02:02:34.792Z,78.30
2017-11-11T02:17:34.704Z,78.62
2017-11-11T02:32:35.044Z,78.46
2017-11-11T02:47:36.973Z,78.28
2017-11-11T03:02:35.406Z,78.04
2017-11-11T03:17:34.903Z,78.14
2017-11-11T03:32:38.321Z,78.43
2017-11-11T03:47:37.182Z,78.44
2017-11-11T04:02:35.169Z,78.41
2017-11-11T04:17:39.843Z,78.87
2017-11-11T04:32:34.465Z,79.02
2017-11-11T04:47:34.385Z,79.44
2017-11-11T05:02:34.325Z,79.47
2017-11-11T05:17:35.268Z,79.23
2017-11-11T05:32:34.483Z,79.27
2017-11-11T05:47:34.622Z,79.00
2017-11-11T06:02:34.589Z,78.62
2017-11-11T06:17:34.520Z,78.01
2017-11-11T06:32:35.994Z,77.39
2017-11-11T06:47:34.809Z,76.77
2017-11-11T07:02:34.757Z,76.03
2017-11-11T07:17:34.756Z,75.50
2017-11-11T07:32:35.165Z,74.35
2017-11-11T07:47:37.154Z,73.12
2017-11-11T08:02:35.087Z,72.21
2017-11-11T08:17:34.497Z,71.45
2017-11-11T08:32:34.446Z,71.80
2017-11-11T08:47:34.946Z,71.80
2017-11-11T09:02:37.260Z,71.25
2017-11-11T09:17:36.737Z,70.54
2017-11-11T09:32:34.414Z,69.13
2017-11-11T09:47:36.225Z,68.35
2017-11-11T10:02:34.526Z,67.59
2017-11-11T10:17:36.440Z,66.95
2017-11-11T10:32:36.854Z,65.23
2017-11-11T10:47:37.372Z,60.50
2017-11-11T11:02:34.744Z,57.57
2017-11-11T11:17:34.725Z,56.44
2017-11-11T11:32:35.092Z,57.19
2017-11-11T11:47:35.069Z,58.84
2017-11-11T12:02:35.026Z,58.64
2017-11-11T12:17:35.044Z,58.08
2017-11-11T12:32:34.385Z,58.20
2017-11-11T12:47:33.883Z,59.18
2017-11-11T13:02:34.815Z,61.13
2017-11-11T13:17:35.207Z,61.58
2017-11-11T13:32:34.634Z,61.83
2017-11-11T13:47:34.556Z,62.40
2017-11-11T14:02:34.494Z,62.99
2017-11-11T14:17:34.411Z,64.28
2017-11-11T14:32:34.853Z,65.44
2017-11-11T14:47:34.826Z,65.85
2017-11-11T15:02:34.752Z,66.20
2017-11-11T15:17:35.445Z,66.84
2017-11-11T15:32:35.137Z,68.83
2017-11-11T15:47:35.100Z,69.82
2017-11-11T16:02:35.073Z,70.53
2017-11-11T16:17:34.959Z,70.67
2017-11-11T16:32:34.414Z,70.58
2017-11-11T16:47:34.297Z,70.50
2017-11-11T17:02:37.506Z,71.30
2017-11-11T17:17:40.210Z,72.25
2017-11-11T17:32:37.610Z,72.47
2017-11-11T17:47:34.592Z,71.88
2017-11-11T18:02:34.450Z,71.66
2017-11-11T18:17:33.994Z,71.41
2017-11-11T18:32:34.886Z,71.09
2017-11-11T18:47:36.777Z,72.79
2017-11-11T19:02:34.991Z,73.72
2017-11-11T19:17:35.180Z,74.14
2017-11-11T19:32:37.120Z,74.58
2017-11-11T19:47:37.094Z,75.40
2017-11-11T20:02:37.338Z,76.08
2017-11-11T20:17:37.081Z,77.69
2017-11-11T20:32:34.411Z,78.93
2017-11-11T20:47:37.009Z,79.68
2017-11-11T21:02:34.257Z,80.22
2017-11-11T21:17:35.693Z,80.70
2017-11-11T21:32:36.686Z,81.04
2017-11-11T21:47:34.574Z,81.14
2017-11-11T22:02:34.541Z,81.18
2017-11-11T22:17:37.483Z,81.26
2017-11-11T22:32:36.911Z,81.53
2017-11-11T22:47:34.772Z,81.16
2017-11-11T23:02:34.708Z,81.33
2017-11-11T23:17:34.643Z,81.14
2017-11-11T23:32:35.084Z,81.03
2017-11-11T23:47:35.067Z,80.90
